sensor_id;sensor_type;location;lat;lon;timestamp;pressure;altitude;pressure_sealevel;temperature;humidity
77469;BME280;68840;50.272;12.818;2024-03-06T00:00:08;96007;;;6.4;69.8
77469;BME280;68840;50.272;12.818;2024-03-06T00:02:05;96011;;;6.4;69.8
77469;BME280;68840;50.272;12.818;2024-03-06T00:04:05;96012;;;6.4;69.7
77469;BME280;68840;50.272;12.818;2024-03-06T00:06:06;96015;;;6.4;69.9
77469;BME280;68840;50.272;12.818;2024-03-06T00:08:06;96016;;;6.4;70.0
77469;BME280;68840;50.272;12.818;2024-03-06T00:10:06;96017;;;6.4;70.2
77469;BME280;68840;50.272;12.818;2024-03-06T00:12:07;96018;;;6.4;70.0
77469;BME280;68840;50.272;12.818;2024-03-06T00:14:06;96018;;;6.4;69.8
77469;BME280;68840;50.272;12.818;2024-03-06T00:16:05;96019;;;6.4;70.0
77469;BME280;68840;50.272;12.818;2024-03-06T00:18:06;96019;;;6.4;69.8
77469;BME280;68840;50.272;12.818;2024-03-06T00:20:06;96019;;;6.4;69.9
77469;BME280;68840;50.272;12.818;2024-03-06T00:22:06;96022;;;6.5;69.8
77469;BME280;68840;50.272;12.818;2024-03-06T00:24:08;96023;;;6.4;69.6
77469;BME280;68840;50.272;12.818;2024-03-06T00:26:05;96025;;;6.4;69.6
77469;BME280;68840;50.272;12.818;2024-03-06T00:28:06;96026;;;6.4;69.5
77469;BME280;68840;50.272;12.818;2024-03-06T00:30:07;96028;;;6.4;69.6
77469;BME280;68840;50.272;12.818;2024-03-06T00:32:05;96031;;;6.4;69.7
77469;BME280;68840;50.272;12.818;2024-03-06T00:34:05;96032;;;6.4;69.6
77469;BME280;68840;50.272;12.818;2024-03-06T00:36:06;96036;;;6.4;69.5
77469;BME280;68840;50.272;12.818;2024-03-06T00:38:06;96036;;;6.4;69.3
77469;BME280;68840;50.272;12.818;2024-03-06T00:40:06;96038;;;6.4;69.3
77469;BME280;68840;50.272;12.818;2024-03-06T00:42:05;96041;;;6.4;69.6
77469;BME280;68840;50.272;12.818;2024-03-06T00:44:05;96041;;;6.4;69.8
77469;BME280;68840;50.272;12.818;2024-03-06T00:46:05;96043;;;6.4;69.9
77469;BME280;68840;50.272;12.818;2024-03-06T00:48:06;96044;;;6.4;70.0
77469;BME280;68840;50.272;12.818;2024-03-06T00:50:07;96047;;;6.4;69.8
77469;BME280;68840;50.272;12.818;2024-03-06T00:52:05;96048;;;6.5;69.5
77469;BME280;68840;50.272;12.818;2024-03-06T00:54:05;96051;;;6.5;69.8
77469;BME280;68840;50.272;12.818;2024-03-06T00:56:07;96053;;;6.5;69.6
77469;BME280;68840;50.272;12.818;2024-03-06T00:58:06;96057;;;6.5;69.4
77469;BME280;68840;50.272;12.818;2024-03-06T01:00:11;96057;;;6.5;69.7
77469;BME280;68840;50.272;12.818;2024-03-06T01:02:07;96060;;;6.5;69.2
77469;BME280;68840;50.272;12.818;2024-03-06T01:04:06;96061;;;6.6;68.9
77469;BME280;68840;50.272;12.818;2024-03-06T01:06:05;96061;;;6.6;69.0
77469;BME280;68840;50.272;12.818;2024-03-06T01:08:05;96061;;;6.6;68.7
77469;BME280;68840;50.272;12.818;2024-03-06T01:10:07;96060;;;6.6;68.7
77469;BME280;68840;50.272;12.818;2024-03-06T01:12:05;96058;;;6.7;69.0
77469;BME280;68840;50.272;12.818;2024-03-06T01:14:05;96055;;;6.7;69.1
77469;BME280;68840;50.272;12.818;2024-03-06T01:16:06;96052;;;6.7;68.9
77469;BME280;68840;50.272;12.818;2024-03-06T01:18:05;96052;;;6.8;68.6
77469;BME280;68840;50.272;12.818;2024-03-06T01:20:09;96048;;;6.8;68.4
77469;BME280;68840;50.272;12.818;2024-03-06T01:22:06;96048;;;6.8;68.8
77469;BME280;68840;50.272;12.818;2024-03-06T01:24:05;96048;;;6.8;69.3
77469;BME280;68840;50.272;12.818;2024-03-06T01:26:05;96051;;;6.8;69.2
77469;BME280;68840;50.272;12.818;2024-03-06T01:28:06;96054;;;6.8;69.0
77469;BME280;68840;50.272;12.818;2024-03-06T01:30:06;96056;;;6.8;69.2
77469;BME280;68840;50.272;12.818;2024-03-06T01:32:05;96056;;;6.8;69.8
77469;BME280;68840;50.272;12.818;2024-03-06T01:34:06;96058;;;6.8;69.0
77469;BME280;68840;50.272;12.818;2024-03-06T01:36:05;96062;;;6.8;69.0
77469;BME280;68840;50.272;12.818;2024-03-06T01:38:06;96064;;;6.8;68.4
77469;BME280;68840;50.272;12.818;2024-03-06T01:40:07;96068;;;6.8;68.5
77469;BME280;68840;50.272;12.818;2024-03-06T01:42:05;96073;;;6.8;68.3
77469;BME280;68840;50.272;12.818;2024-03-06T01:44:05;96073;;;6.7;68.1
77469;BME280;68840;50.272;12.818;2024-03-06T01:46:08;96075;;;6.7;68.1
77469;BME280;68840;50.272;12.818;2024-03-06T01:48:08;96074;;;6.7;67.8
77469;BME280;68840;50.272;12.818;2024-03-06T01:50:09;96078;;;6.7;67.6
77469;BME280;68840;50.272;12.818;2024-03-06T01:52:07;96080;;;6.7;67.6
77469;BME280;68840;50.272;12.818;2024-03-06T01:54:06;96082;;;6.7;67.4
77469;BME280;68840;50.272;12.818;2024-03-06T01:56:08;96084;;;6.7;67.7
77469;BME280;68840;50.272;12.818;2024-03-06T01:58:06;96082;;;6.7;67.9
77469;BME280;68840;50.272;12.818;2024-03-06T02:00:08;96080;;;6.6;68.1
77469;BME280;68840;50.272;12.818;2024-03-06T02:02:07;96079;;;6.6;68.2
77469;BME280;68840;50.272;12.818;2024-03-06T02:04:06;96076;;;6.6;68.2
77469;BME280;68840;50.272;12.818;2024-03-06T02:06:06;96075;;;6.6;68.7
77469;BME280;68840;50.272;12.818;2024-03-06T02:08:07;96078;;;6.6;68.5
77469;BME280;68840;50.272;12.818;2024-03-06T02:10:07;96081;;;6.6;69.0
77469;BME280;68840;50.272;12.818;2024-03-06T02:12:08;96084;;;6.6;68.8
77469;BME280;68840;50.272;12.818;2024-03-06T02:14:09;96086;;;6.6;68.6
77469;BME280;68840;50.272;12.818;2024-03-06T02:16:06;96089;;;6.6;68.9
77469;BME280;68840;50.272;12.818;2024-03-06T02:18:06;96089;;;6.6;68.5
77469;BME280;68840;50.272;12.818;2024-03-06T02:20:07;96089;;;6.6;68.8
77469;BME280;68840;50.272;12.818;2024-03-06T02:22:06;96089;;;6.6;68.7
77469;BME280;68840;50.272;12.818;2024-03-06T02:24:11;96088;;;6.5;69.2
77469;BME280;68840;50.272;12.818;2024-03-06T02:26:07;96087;;;6.5;69.3
77469;BME280;68840;50.272;12.818;2024-03-06T02:28:06;96088;;;6.5;69.2
77469;BME280;68840;50.272;12.818;2024-03-06T02:30:07;96087;;;6.5;69.2
77469;BME280;68840;50.272;12.818;2024-03-06T02:32:06;96089;;;6.5;69.4
77469;BME280;68840;50.272;12.818;2024-03-06T02:34:06;96091;;;6.5;69.6
77469;BME280;68840;50.272;12.818;2024-03-06T02:36:06;96093;;;6.5;69.6
77469;BME280;68840;50.272;12.818;2024-03-06T02:38:05;96097;;;6.4;70.0
77469;BME280;68840;50.272;12.818;2024-03-06T02:40:09;96098;;;6.4;69.9
77469;BME280;68840;50.272;12.818;2024-03-06T02:42:06;96101;;;6.4;69.8
77469;BME280;68840;50.272;12.818;2024-03-06T02:44:07;96103;;;6.4;69.6
77469;BME280;68840;50.272;12.818;2024-03-06T02:46:05;96106;;;6.4;69.8
77469;BME280;68840;50.272;12.818;2024-03-06T02:48:06;96109;;;6.4;69.7
77469;BME280;68840;50.272;12.818;2024-03-06T02:50:07;96110;;;6.4;69.9
77469;BME280;68840;50.272;12.818;2024-03-06T02:52:05;96109;;;6.4;69.7
77469;BME280;68840;50.272;12.818;2024-03-06T02:54:05;96110;;;6.4;69.9
77469;BME280;68840;50.272;12.818;2024-03-06T02:56:06;96110;;;6.4;70.0
77469;BME280;68840;50.272;12.818;2024-03-06T02:58:05;96110;;;6.4;69.8
77469;BME280;68840;50.272;12.818;2024-03-06T03:00:13;96110;;;6.4;69.8
77469;BME280;68840;50.272;12.818;2024-03-06T03:02:05;96109;;;6.5;69.7
77469;BME280;68840;50.272;12.818;2024-03-06T03:04:07;96107;;;6.5;69.8
77469;BME280;68840;50.272;12.818;2024-03-06T03:06:05;96106;;;6.5;69.6
77469;BME280;68840;50.272;12.818;2024-03-06T03:08:06;96106;;;6.5;69.8
77469;BME280;68840;50.272;12.818;2024-03-06T03:10:06;96106;;;6.5;69.7
77469;BME280;68840;50.272;12.818;2024-03-06T03:12:06;96105;;;6.5;69.6
77469;BME280;68840;50.272;12.818;2024-03-06T03:14:06;96108;;;6.5;69.5
77469;BME280;68840;50.272;12.818;2024-03-06T03:16:06;96107;;;6.5;69.8
77469;BME280;68840;50.272;12.818;2024-03-06T03:18:06;96109;;;6.5;69.8
77469;BME280;68840;50.272;12.818;2024-03-06T03:20:10;96111;;;6.6;69.6
77469;BME280;68840;50.272;12.818;2024-03-06T03:22:06;96114;;;6.6;69.4
77469;BME280;68840;50.272;12.818;2024-03-06T03:24:05;96114;;;6.6;69.3
77469;BME280;68840;50.272;12.818;2024-03-06T03:26:06;96116;;;6.6;69.3
77469;BME280;68840;50.272;12.818;2024-03-06T03:28:05;96116;;;6.6;69.3
77469;BME280;68840;50.272;12.818;2024-03-06T03:30:09;96120;;;6.6;69.8
77469;BME280;68840;50.272;12.818;2024-03-06T03:32:05;96120;;;6.6;69.7
77469;BME280;68840;50.272;12.818;2024-03-06T03:34:05;96118;;;6.6;69.4
77469;BME280;68840;50.272;12.818;2024-03-06T03:36:07;96119;;;6.6;68.9
77469;BME280;68840;50.272;12.818;2024-03-06T03:38:06;96121;;;6.6;68.8
77469;BME280;68840;50.272;12.818;2024-03-06T03:40:06;96121;;;6.6;69.1
77469;BME280;68840;50.272;12.818;2024-03-06T03:42:06;96121;;;6.6;69.1
77469;BME280;68840;50.272;12.818;2024-03-06T03:44:05;96121;;;6.6;69.5
77469;BME280;68840;50.272;12.818;2024-03-06T03:46:06;96122;;;6.6;69.5
77469;BME280;68840;50.272;12.818;2024-03-06T03:48:06;96124;;;6.6;69.8
77469;BME280;68840;50.272;12.818;2024-03-06T03:50:06;96128;;;6.6;69.5
77469;BME280;68840;50.272;12.818;2024-03-06T03:52:06;96128;;;6.6;69.6
77469;BME280;68840;50.272;12.818;2024-03-06T03:54:06;96130;;;6.6;69.7
77469;BME280;68840;50.272;12.818;2024-03-06T03:56:06;96131;;;6.6;69.7
77469;BME280;68840;50.272;12.818;2024-03-06T03:58:06;96133;;;6.6;69.7
77469;BME280;68840;50.272;12.818;2024-03-06T04:00:10;96134;;;6.6;69.7
77469;BME280;68840;50.272;12.818;2024-03-06T04:02:05;96134;;;6.6;69.7
77469;BME280;68840;50.272;12.818;2024-03-06T04:04:07;96134;;;6.6;69.5
77469;BME280;68840;50.272;12.818;2024-03-06T04:06:06;96132;;;6.7;69.4
77469;BME280;68840;50.272;12.818;2024-03-06T04:08:06;96130;;;6.6;69.3
77469;BME280;68840;50.272;12.818;2024-03-06T04:10:10;96132;;;6.7;69.6
77469;BME280;68840;50.272;12.818;2024-03-06T04:12:06;96131;;;6.7;69.2
77469;BME280;68840;50.272;12.818;2024-03-06T04:14:06;96130;;;6.7;69.1
77469;BME280;68840;50.272;12.818;2024-03-06T04:16:06;96130;;;6.7;68.9
77469;BME280;68840;50.272;12.818;2024-03-06T04:18:05;96132;;;6.7;68.9
77469;BME280;68840;50.272;12.818;2024-03-06T04:20:06;96134;;;6.7;68.7
77469;BME280;68840;50.272;12.818;2024-03-06T04:22:05;96136;;;6.7;69.0
77469;BME280;68840;50.272;12.818;2024-03-06T04:24:05;96136;;;6.7;68.7
77469;BME280;68840;50.272;12.818;2024-03-06T04:26:05;96135;;;6.8;68.5
77469;BME280;68840;50.272;12.818;2024-03-06T04:28:07;96134;;;6.8;68.6
77469;BME280;68840;50.272;12.818;2024-03-06T04:30:07;96136;;;6.8;68.7
77469;BME280;68840;50.272;12.818;2024-03-06T04:32:06;96135;;;6.8;68.1
77469;BME280;68840;50.272;12.818;2024-03-06T04:34:05;96136;;;6.8;68.1
77469;BME280;68840;50.272;12.818;2024-03-06T04:36:07;96135;;;6.8;68.4
77469;BME280;68840;50.272;12.818;2024-03-06T04:38:06;96137;;;6.8;68.7
77469;BME280;68840;50.272;12.818;2024-03-06T04:40:07;96141;;;6.8;68.3
77469;BME280;68840;50.272;12.818;2024-03-06T04:42:06;96141;;;6.8;68.2
77469;BME280;68840;50.272;12.818;2024-03-06T04:44:06;96141;;;6.8;68.2
77469;BME280;68840;50.272;12.818;2024-03-06T04:46:05;96143;;;6.8;68.3
77469;BME280;68840;50.272;12.818;2024-03-06T04:48:08;96146;;;6.8;68.1
77469;BME280;68840;50.272;12.818;2024-03-06T04:50:09;96150;;;6.8;68.1
77469;BME280;68840;50.272;12.818;2024-03-06T04:52:06;96150;;;6.8;68.6
77469;BME280;68840;50.272;12.818;2024-03-06T04:54:05;96152;;;6.8;68.4
77469;BME280;68840;50.272;12.818;2024-03-06T04:56:07;96152;;;6.8;68.5
77469;BME280;68840;50.272;12.818;2024-03-06T04:58:06;96153;;;6.8;68.5
77469;BME280;68840;50.272;12.818;2024-03-06T05:00:06;96154;;;6.9;68.2
77469;BME280;68840;50.272;12.818;2024-03-06T05:02:05;96153;;;6.9;68.3
77469;BME280;68840;50.272;12.818;2024-03-06T05:04:06;96155;;;6.9;68.4
77469;BME280;68840;50.272;12.818;2024-03-06T05:06:06;96157;;;6.9;68.4
77469;BME280;68840;50.272;12.818;2024-03-06T05:08:07;96156;;;6.9;68.3
77469;BME280;68840;50.272;12.818;2024-03-06T05:10:07;96157;;;6.9;68.3
77469;BME280;68840;50.272;12.818;2024-03-06T05:12:06;96159;;;7.0;68.4
77469;BME280;68840;50.272;12.818;2024-03-06T05:14:05;96160;;;7.0;68.1
77469;BME280;68840;50.272;12.818;2024-03-06T05:16:07;96161;;;7.0;68.1
77469;BME280;68840;50.272;12.818;2024-03-06T05:18:06;96164;;;7.0;68.0
77469;BME280;68840;50.272;12.818;2024-03-06T05:20:06;96166;;;7.0;68.2
77469;BME280;68840;50.272;12.818;2024-03-06T05:22:06;96166;;;7.0;68.0
77469;BME280;68840;50.272;12.818;2024-03-06T05:24:09;96167;;;7.0;67.9
77469;BME280;68840;50.272;12.818;2024-03-06T05:26:05;96170;;;7.0;68.2
77469;BME280;68840;50.272;12.818;2024-03-06T05:28:06;96173;;;7.0;68.0
77469;BME280;68840;50.272;12.818;2024-03-06T05:30:06;96176;;;7.0;68.0
77469;BME280;68840;50.272;12.818;2024-03-06T05:32:07;96177;;;7.1;67.7
77469;BME280;68840;50.272;12.818;2024-03-06T05:34:05;96177;;;7.1;68.1
77469;BME280;68840;50.272;12.818;2024-03-06T05:36:06;96179;;;7.0;67.8
77469;BME280;68840;50.272;12.818;2024-03-06T05:38:07;96180;;;7.0;67.6
77469;BME280;68840;50.272;12.818;2024-03-06T05:40:06;96179;;;7.0;68.1
77469;BME280;68840;50.272;12.818;2024-03-06T05:42:06;96179;;;7.0;67.8
77469;BME280;68840;50.272;12.818;2024-03-06T05:44:05;96179;;;7.0;67.9
77469;BME280;68840;50.272;12.818;2024-03-06T05:46:06;96180;;;7.0;67.8
77469;BME280;68840;50.272;12.818;2024-03-06T05:48:08;96179;;;7.0;67.8
77469;BME280;68840;50.272;12.818;2024-03-06T05:50:06;96181;;;7.0;68.0
77469;BME280;68840;50.272;12.818;2024-03-06T05:52:05;96183;;;7.0;68.0
77469;BME280;68840;50.272;12.818;2024-03-06T05:54:08;96184;;;7.0;68.3
77469;BME280;68840;50.272;12.818;2024-03-06T05:56:06;96182;;;7.0;67.9
77469;BME280;68840;50.272;12.818;2024-03-06T05:58:07;96181;;;7.0;68.1
77469;BME280;68840;50.272;12.818;2024-03-06T06:02:06;96182;;;7.1;68.1
77469;BME280;68840;50.272;12.818;2024-03-06T06:04:05;96182;;;7.1;68.5
77469;BME280;68840;50.272;12.818;2024-03-06T06:06:05;96183;;;7.1;68.8
77469;BME280;68840;50.272;12.818;2024-03-06T06:08:05;96185;;;7.2;68.7
77469;BME280;68840;50.272;12.818;2024-03-06T06:10:09;96187;;;7.2;68.5
77469;BME280;68840;50.272;12.818;2024-03-06T06:12:08;96188;;;7.3;68.1
77469;BME280;68840;50.272;12.818;2024-03-06T06:14:06;96192;;;7.3;67.5
77469;BME280;68840;50.272;12.818;2024-03-06T06:16:07;96194;;;7.3;67.2
77469;BME280;68840;50.272;12.818;2024-03-06T06:18:05;96195;;;7.3;67.1
77469;BME280;68840;50.272;12.818;2024-03-06T06:20:09;96197;;;7.3;67.4
77469;BME280;68840;50.272;12.818;2024-03-06T06:22:05;96200;;;7.3;67.2
77469;BME280;68840;50.272;12.818;2024-03-06T06:24:06;96201;;;7.3;67.9
77469;BME280;68840;50.272;12.818;2024-03-06T06:26:05;96204;;;7.3;67.7
77469;BME280;68840;50.272;12.818;2024-03-06T06:28:05;96208;;;7.3;68.0
77469;BME280;68840;50.272;12.818;2024-03-06T06:30:07;96210;;;7.4;68.0
77469;BME280;68840;50.272;12.818;2024-03-06T06:32:06;96211;;;7.4;68.1
77469;BME280;68840;50.272;12.818;2024-03-06T06:34:06;96216;;;7.5;67.6
77469;BME280;68840;50.272;12.818;2024-03-06T06:36:06;96218;;;7.5;67.7
77469;BME280;68840;50.272;12.818;2024-03-06T06:38:05;96221;;;7.5;67.4
77469;BME280;68840;50.272;12.818;2024-03-06T06:40:08;96225;;;7.6;67.8
77469;BME280;68840;50.272;12.818;2024-03-06T06:42:05;96228;;;7.6;67.6
77469;BME280;68840;50.272;12.818;2024-03-06T06:44:06;96227;;;7.7;67.8
77469;BME280;68840;50.272;12.818;2024-03-06T06:46:06;96228;;;7.7;67.6
77469;BME280;68840;50.272;12.818;2024-03-06T06:48:06;96227;;;7.7;67.5
77469;BME280;68840;50.272;12.818;2024-03-06T06:50:06;96227;;;7.8;67.7
77469;BME280;68840;50.272;12.818;2024-03-06T06:52:08;96229;;;7.8;67.2
77469;BME280;68840;50.272;12.818;2024-03-06T06:54:05;96229;;;7.9;65.6
77469;BME280;68840;50.272;12.818;2024-03-06T06:56:06;96230;;;7.9;65.7
77469;BME280;68840;50.272;12.818;2024-03-06T06:58:06;96230;;;7.9;65.5
77469;BME280;68840;50.272;12.818;2024-03-06T07:00:10;96230;;;7.9;65.2
77469;BME280;68840;50.272;12.818;2024-03-06T07:02:06;96231;;;8.0;66.2
77469;BME280;68840;50.272;12.818;2024-03-06T07:04:09;96233;;;8.0;66.6
77469;BME280;68840;50.272;12.818;2024-03-06T07:06:06;96236;;;8.0;66.2
77469;BME280;68840;50.272;12.818;2024-03-06T07:08:06;96239;;;8.1;66.3
77469;BME280;68840;50.272;12.818;2024-03-06T07:10:08;96241;;;8.1;66.0
77469;BME280;68840;50.272;12.818;2024-03-06T07:12:07;96242;;;8.1;65.1
77469;BME280;68840;50.272;12.818;2024-03-06T07:14:06;96244;;;8.1;66.3
77469;BME280;68840;50.272;12.818;2024-03-06T07:16:06;96247;;;8.1;66.0
77469;BME280;68840;50.272;12.818;2024-03-06T07:18:06;96250;;;8.2;66.4
77469;BME280;68840;50.272;12.818;2024-03-06T07:20:08;96253;;;8.2;66.2
77469;BME280;68840;50.272;12.818;2024-03-06T07:22:06;96253;;;8.3;66.2
77469;BME280;68840;50.272;12.818;2024-03-06T07:24:06;96254;;;8.3;66.2
77469;BME280;68840;50.272;12.818;2024-03-06T07:26:05;96254;;;8.4;64.7
77469;BME280;68840;50.272;12.818;2024-03-06T07:28:09;96253;;;8.4;64.0
77469;BME280;68840;50.272;12.818;2024-03-06T07:30:07;96252;;;8.4;64.8
77469;BME280;68840;50.272;12.818;2024-03-06T07:32:06;96254;;;8.4;66.1
77469;BME280;68840;50.272;12.818;2024-03-06T07:34:08;96256;;;8.5;65.5
77469;BME280;68840;50.272;12.818;2024-03-06T07:36:06;96259;;;8.5;64.3
77469;BME280;68840;50.272;12.818;2024-03-06T07:38:05;96260;;;8.6;63.7
77469;BME280;68840;50.272;12.818;2024-03-06T07:40:07;96260;;;8.6;63.6
77469;BME280;68840;50.272;12.818;2024-03-06T07:42:05;96263;;;8.5;63.8
77469;BME280;68840;50.272;12.818;2024-03-06T07:44:06;96268;;;8.5;63.8
77469;BME280;68840;50.272;12.818;2024-03-06T07:46:10;96273;;;8.5;63.3
77469;BME280;68840;50.272;12.818;2024-03-06T07:50:07;96279;;;8.5;64.7
77469;BME280;68840;50.272;12.818;2024-03-06T07:52:05;96282;;;8.6;64.7
77469;BME280;68840;50.272;12.818;2024-03-06T07:54:05;96284;;;8.6;63.4
77469;BME280;68840;50.272;12.818;2024-03-06T07:56:06;96285;;;8.5;63.2
77469;BME280;68840;50.272;12.818;2024-03-06T07:58:08;96287;;;8.5;63.6
77469;BME280;68840;50.272;12.818;2024-03-06T08:00:14;96290;;;8.5;63.4
77469;BME280;68840;50.272;12.818;2024-03-06T08:02:06;96292;;;8.5;63.5
77469;BME280;68840;50.272;12.818;2024-03-06T08:04:06;96291;;;8.4;63.6
77469;BME280;68840;50.272;12.818;2024-03-06T08:06:06;96292;;;8.5;64.5
77469;BME280;68840;50.272;12.818;2024-03-06T08:08:06;96296;;;8.5;64.8
77469;BME280;68840;50.272;12.818;2024-03-06T08:10:06;96297;;;8.5;64.2
77469;BME280;68840;50.272;12.818;2024-03-06T08:12:06;96299;;;8.5;65.0
77469;BME280;68840;50.272;12.818;2024-03-06T08:14:06;96301;;;8.5;65.0
77469;BME280;68840;50.272;12.818;2024-03-06T08:16:06;96304;;;8.5;64.5
77469;BME280;68840;50.272;12.818;2024-03-06T08:18:08;96306;;;8.6;65.5
77469;BME280;68840;50.272;12.818;2024-03-06T08:20:08;96309;;;8.6;65.6
77469;BME280;68840;50.272;12.818;2024-03-06T08:22:06;96311;;;8.6;64.7
77469;BME280;68840;50.272;12.818;2024-03-06T08:24:05;96314;;;8.7;63.3
77469;BME280;68840;50.272;12.818;2024-03-06T08:26:08;96315;;;8.7;65.8
77469;BME280;68840;50.272;12.818;2024-03-06T08:28:06;96318;;;8.7;66.1
77469;BME280;68840;50.272;12.818;2024-03-06T08:30:07;96321;;;8.8;65.7
77469;BME280;68840;50.272;12.818;2024-03-06T08:32:05;96323;;;8.9;64.6
77469;BME280;68840;50.272;12.818;2024-03-06T08:34:06;96321;;;8.9;65.7
77469;BME280;68840;50.272;12.818;2024-03-06T08:36:06;96324;;;9.0;64.6
77469;BME280;68840;50.272;12.818;2024-03-06T08:38:06;96329;;;9.0;64.7
77469;BME280;68840;50.272;12.818;2024-03-06T08:40:08;96333;;;9.1;65.3
77469;BME280;68840;50.272;12.818;2024-03-06T08:42:05;96335;;;9.1;64.8
77469;BME280;68840;50.272;12.818;2024-03-06T08:44:05;96338;;;9.1;63.3
77469;BME280;68840;50.272;12.818;2024-03-06T08:46:05;96340;;;9.1;62.4
77469;BME280;68840;50.272;12.818;2024-03-06T08:48:09;96341;;;9.1;63.4
77469;BME280;68840;50.272;12.818;2024-03-06T08:50:10;96342;;;9.2;62.5
77469;BME280;68840;50.272;12.818;2024-03-06T08:52:06;96344;;;9.2;62.9
77469;BME280;68840;50.272;12.818;2024-03-06T08:54:06;96347;;;9.2;62.3
77469;BME280;68840;50.272;12.818;2024-03-06T08:56:06;96347;;;9.1;62.5
77469;BME280;68840;50.272;12.818;2024-03-06T08:58:06;96349;;;9.1;62.5
77469;BME280;68840;50.272;12.818;2024-03-06T09:00:12;96347;;;9.1;62.6
77469;BME280;68840;50.272;12.818;2024-03-06T09:02:15;96349;;;9.1;62.4
77469;BME280;68840;50.272;12.818;2024-03-06T09:04:07;96350;;;9.1;63.4
77469;BME280;68840;50.272;12.818;2024-03-06T09:06:06;96350;;;9.1;63.4
77469;BME280;68840;50.272;12.818;2024-03-06T09:08:06;96350;;;9.1;63.1
77469;BME280;68840;50.272;12.818;2024-03-06T09:10:06;96349;;;9.1;62.8
77469;BME280;68840;50.272;12.818;2024-03-06T09:12:07;96351;;;9.1;63.4
77469;BME280;68840;50.272;12.818;2024-03-06T09:14:05;96353;;;9.1;63.6
77469;BME280;68840;50.272;12.818;2024-03-06T09:16:06;96354;;;9.2;62.9
77469;BME280;68840;50.272;12.818;2024-03-06T09:18:06;96357;;;9.2;62.2
77469;BME280;68840;50.272;12.818;2024-03-06T09:20:10;96358;;;9.2;63.0
77469;BME280;68840;50.272;12.818;2024-03-06T09:22:06;96363;;;9.2;61.5
77469;BME280;68840;50.272;12.818;2024-03-06T09:24:06;96364;;;9.1;62.3
77469;BME280;68840;50.272;12.818;2024-03-06T09:26:07;96366;;;9.1;62.1
77469;BME280;68840;50.272;12.818;2024-03-06T09:28:08;96367;;;9.0;61.8
77469;BME280;68840;50.272;12.818;2024-03-06T09:30:06;96370;;;9.0;62.0
77469;BME280;68840;50.272;12.818;2024-03-06T09:32:06;96370;;;8.9;61.9
77469;BME280;68840;50.272;12.818;2024-03-06T09:34:05;96371;;;8.9;61.6
77469;BME280;68840;50.272;12.818;2024-03-06T09:36:06;96372;;;8.8;61.7
77469;BME280;68840;50.272;12.818;2024-03-06T09:38:06;96372;;;8.7;62.6
77469;BME280;68840;50.272;12.818;2024-03-06T09:40:07;96374;;;8.7;62.7
77469;BME280;68840;50.272;12.818;2024-03-06T09:42:07;96376;;;8.7;63.0
77469;BME280;68840;50.272;12.818;2024-03-06T09:44:07;96379;;;8.7;63.0
77469;BME280;68840;50.272;12.818;2024-03-06T09:46:06;96382;;;8.7;62.8
77469;BME280;68840;50.272;12.818;2024-03-06T09:48:08;96381;;;8.6;63.5
77469;BME280;68840;50.272;12.818;2024-03-06T09:50:09;96383;;;8.6;62.8
77469;BME280;68840;50.272;12.818;2024-03-06T09:52:06;96386;;;8.6;62.8
77469;BME280;68840;50.272;12.818;2024-03-06T09:54:07;96386;;;8.5;62.9
77469;BME280;68840;50.272;12.818;2024-03-06T09:56:08;96387;;;8.5;63.4
77469;BME280;68840;50.272;12.818;2024-03-06T09:58:06;96384;;;8.5;64.3
77469;BME280;68840;50.272;12.818;2024-03-06T10:00:08;96387;;;8.5;64.9
77469;BME280;68840;50.272;12.818;2024-03-06T10:02:14;96388;;;8.6;63.7
77469;BME280;68840;50.272;12.818;2024-03-06T10:04:17;96387;;;8.6;63.7
77469;BME280;68840;50.272;12.818;2024-03-06T10:06:06;96384;;;8.6;62.8
77469;BME280;68840;50.272;12.818;2024-03-06T10:08:06;96386;;;8.7;63.0
77469;BME280;68840;50.272;12.818;2024-03-06T10:10:06;96387;;;8.6;63.2
77469;BME280;68840;50.272;12.818;2024-03-06T10:12:06;96389;;;8.7;62.9
77469;BME280;68840;50.272;12.818;2024-03-06T10:14:05;96389;;;8.7;63.7
77469;BME280;68840;50.272;12.818;2024-03-06T10:16:08;96389;;;8.7;62.8
77469;BME280;68840;50.272;12.818;2024-03-06T10:18:11;96391;;;8.7;63.1
77469;BME280;68840;50.272;12.818;2024-03-06T10:20:16;96393;;;8.7;62.9
77469;BME280;68840;50.272;12.818;2024-03-06T10:22:08;96392;;;8.7;62.4
77469;BME280;68840;50.272;12.818;2024-03-06T10:24:06;96392;;;8.8;63.3
77469;BME280;68840;50.272;12.818;2024-03-06T10:26:07;96393;;;8.8;63.1
77469;BME280;68840;50.272;12.818;2024-03-06T10:28:07;96395;;;8.8;62.2
77469;BME280;68840;50.272;12.818;2024-03-06T10:30:11;96397;;;8.8;62.8
77469;BME280;68840;50.272;12.818;2024-03-06T10:32:06;96395;;;8.8;63.3
77469;BME280;68840;50.272;12.818;2024-03-06T10:34:06;96392;;;8.8;61.9
77469;BME280;68840;50.272;12.818;2024-03-06T10:36:11;96390;;;8.8;62.9
77469;BME280;68840;50.272;12.818;2024-03-06T10:38:07;96391;;;8.9;62.8
77469;BME280;68840;50.272;12.818;2024-03-06T10:40:12;96392;;;8.9;61.9
77469;BME280;68840;50.272;12.818;2024-03-06T10:42:07;96392;;;8.9;63.2
77469;BME280;68840;50.272;12.818;2024-03-06T10:44:14;96392;;;9.0;62.2
77469;BME280;68840;50.272;12.818;2024-03-06T10:46:06;96392;;;9.1;62.2
77469;BME280;68840;50.272;12.818;2024-03-06T10:48:07;96394;;;9.2;61.7
77469;BME280;68840;50.272;12.818;2024-03-06T10:50:10;96393;;;9.2;61.0
77469;BME280;68840;50.272;12.818;2024-03-06T10:52:06;96394;;;9.3;60.8
77469;BME280;68840;50.272;12.818;2024-03-06T10:54:07;96393;;;9.4;60.1
77469;BME280;68840;50.272;12.818;2024-03-06T10:56:08;96394;;;9.4;60.7
77469;BME280;68840;50.272;12.818;2024-03-06T10:58:08;96395;;;9.5;60.6
77469;BME280;68840;50.272;12.818;2024-03-06T11:00:07;96397;;;9.5;60.3
77469;BME280;68840;50.272;12.818;2024-03-06T11:02:09;96395;;;9.6;59.7
77469;BME280;68840;50.272;12.818;2024-03-06T11:04:06;96391;;;9.6;60.3
77469;BME280;68840;50.272;12.818;2024-03-06T11:06:07;96390;;;9.6;60.1
77469;BME280;68840;50.272;12.818;2024-03-06T11:08:07;96388;;;9.7;60.0
77469;BME280;68840;50.272;12.818;2024-03-06T11:10:07;96390;;;9.8;59.1
77469;BME280;68840;50.272;12.818;2024-03-06T11:12:06;96389;;;9.9;60.0
77469;BME280;68840;50.272;12.818;2024-03-06T11:14:08;96390;;;9.9;59.7
77469;BME280;68840;50.272;12.818;2024-03-06T11:16:07;96387;;;10.0;59.8
77469;BME280;68840;50.272;12.818;2024-03-06T11:20:15;96388;;;10.2;58.7
77469;BME280;68840;50.272;12.818;2024-03-06T11:22:06;96389;;;10.3;57.9
77469;BME280;68840;50.272;12.818;2024-03-06T11:24:15;96388;;;10.3;57.0
77469;BME280;68840;50.272;12.818;2024-03-06T11:26:06;96386;;;10.4;58.8